Time;durP1;ratioP1;P1;durP2;ratioP2;P2;SDS_P1;SDS_P2;PMS_P1;PMS_P2;Temp;Humidity;BMP_temperature;BMP_pressure;BME280_temperature;BME280_humidity;BME280_pressure;Samples;Min_cycle;Max_cycle;Signal;HPM_P1;HPM_P2
2023/04/04 00:02:14;;;;;;;1.85;0.88;;;12.00;96.70;;;;;;5141827;27;20039;-72
2023/04/04 00:04:44;;;;;;;2.95;0.75;;;12.00;96.70;;;;;;5140057;27;20042;-72
2023/04/04 00:07:12;;;;;;;2.00;0.82;;;12.00;96.70;;;;;;5142810;27;20455;-72
2023/04/04 00:09:40;;;;;;;3.90;0.85;;;12.00;96.70;;;;;;5133138;27;20066;-72
2023/04/04 00:12:08;;;;;;;1.92;0.90;;;12.10;96.70;;;;;;5142260;27;20047;-72
2023/04/04 00:14:36;;;;;;;3.83;0.90;;;12.00;96.70;;;;;;5141289;27;20049;-72
2023/04/04 00:17:04;;;;;;;2.35;0.80;;;11.90;96.70;;;;;;5123951;27;20063;-72
2023/04/04 00:19:32;;;;;;;2.70;0.70;;;11.90;96.70;;;;;;5141298;27;20038;-72
2023/04/04 00:22:02;;;;;;;2.65;0.70;;;11.90;96.70;;;;;;5140491;27;20093;-72
2023/04/04 00:24:30;;;;;;;3.70;0.77;;;11.90;96.70;;;;;;5141629;27;20125;-71
2023/04/04 00:26:58;;;;;;;2.15;0.65;;;11.90;96.70;;;;;;5143225;27;20138;-72
2023/04/04 00:29:28;;;;;;;2.28;0.65;;;11.90;96.70;;;;;;5141218;27;20045;-72
2023/04/04 00:31:57;;;;;;;5.28;1.00;;;11.70;96.70;;;;;;5134405;27;20054;-72
2023/04/04 00:34:25;;;;;;;2.60;0.70;;;11.70;96.70;;;;;;5128774;27;20043;-72
2023/04/04 00:36:53;;;;;;;3.10;0.82;;;11.70;96.70;;;;;;5123453;27;20050;-72
2023/04/04 00:39:25;;;;;;;2.10;0.60;;;11.70;96.70;;;;;;5138312;27;20119;-72
2023/04/04 00:41:53;;;;;;;3.03;0.60;;;11.70;96.70;;;;;;5140821;27;20062;-73
2023/04/04 00:44:21;;;;;;;2.05;0.60;;;11.70;96.70;;;;;;5141824;27;20522;-72
2023/04/04 00:46:51;;;;;;;2.25;0.60;;;11.60;96.70;;;;;;5141255;27;20084;-73
2023/04/04 00:49:19;;;;;;;2.47;0.70;;;11.60;96.70;;;;;;5123088;27;20038;-72
2023/04/04 00:51:48;;;;;;;3.38;0.80;;;11.70;96.70;;;;;;5142621;27;20054;-72
2023/04/04 00:54:17;;;;;;;1.60;0.68;;;11.60;96.70;;;;;;5140627;27;20042;-72
2023/04/04 00:56:47;;;;;;;2.17;0.65;;;11.60;96.70;;;;;;5141228;27;20063;-72
2023/04/04 00:59:15;;;;;;;1.25;0.50;;;11.60;96.70;;;;;;5141597;27;20125;-73
2023/04/04 01:01:43;;;;;;;2.70;0.65;;;11.60;96.70;;;;;;5141741;27;20057;-72
2023/04/04 01:04:12;;;;;;;2.05;0.70;;;11.70;96.70;;;;;;5139347;27;20043;-73
2023/04/04 01:06:41;;;;;;;2.03;0.85;;;11.70;96.70;;;;;;5123907;27;20046;-74
2023/04/04 01:09:10;;;;;;;2.17;0.60;;;11.60;96.70;;;;;;5141392;27;20046;-73
2023/04/04 01:11:39;;;;;;;2.35;0.68;;;11.70;96.70;;;;;;5141474;27;20043;-73
2023/04/04 01:14:09;;;;;;;4.18;0.70;;;11.70;96.70;;;;;;5139116;27;20042;-72
2023/04/04 01:16:38;;;;;;;2.80;0.73;;;11.80;96.70;;;;;;5140816;27;20572;-73
2023/04/04 01:19:11;;;;;;;3.83;0.60;;;11.80;96.70;;;;;;5142223;27;20137;-73
2023/04/04 01:21:40;;;;;;;1.88;0.60;;;11.60;96.70;;;;;;5141390;27;20042;-73
2023/04/04 01:24:12;;;;;;;4.75;0.60;;;11.60;96.70;;;;;;5131433;27;20046;-73
2023/04/04 01:26:46;;;;;;;;;;;11.60;96.70;;;;;;5140570;27;20047;-73
2023/04/04 01:29:14;;;;;;;2.92;0.60;;;11.50;96.70;;;;;;5141404;27;21171;-73
2023/04/04 01:31:53;;;;;;;1.00;0.55;;;11.50;96.70;;;;;;5141361;27;20041;-73
2023/04/04 01:34:50;;;;;;;1.65;0.65;;;11.40;96.70;;;;;;5145169;27;20087;-74
2023/04/04 01:37:25;;;;;;;4.35;0.55;;;11.50;96.70;;;;;;5138128;27;20039;-73
2023/04/04 01:39:58;;;;;;;2.33;0.82;;;11.50;96.70;;;;;;5128342;27;20538;-73
2023/04/04 01:42:29;;;;;;;3.33;0.73;;;11.60;96.70;;;;;;5139815;27;20043;-73
2023/04/04 01:44:57;;;;;;;1.42;0.50;;;11.40;96.70;;;;;;5144564;27;20051;-73
2023/04/04 01:47:37;;;;;;;2.10;0.60;;;11.30;96.70;;;;;;5145638;27;20061;-73
2023/04/04 01:50:08;;;;;;;1.35;0.60;;;11.40;96.70;;;;;;5144160;27;20030;-73
2023/04/04 01:52:37;;;;;;;4.30;0.60;;;11.50;96.70;;;;;;5126014;27;20137;-73
2023/04/04 01:55:07;;;;;;;3.63;0.70;;;11.40;96.70;;;;;;5142488;27;20043;-73
2023/04/04 01:57:36;;;;;;;3.58;0.60;;;11.40;96.70;;;;;;5143946;27;20042;-74
2023/04/04 02:00:06;;;;;;;5.20;1.10;;;11.30;96.70;;;;;;5144536;27;20489;-73
2023/04/04 02:02:42;;;;;;;1.80;0.50;;;11.40;96.70;;;;;;5144985;27;20099;-73
2023/04/04 02:05:11;;;;;;;2.28;0.50;;;11.40;96.70;;;;;;5143309;27;20131;-73
2023/04/04 02:07:40;;;;;;;1.65;0.60;;;11.30;96.70;;;;;;5143600;27;20668;-73
2023/04/04 02:10:20;;;;;;;2.55;0.95;;;11.20;96.70;;;;;;5129170;27;20141;-73
2023/04/04 02:12:52;;;;;;;6.65;0.80;;;11.30;96.70;;;;;;5144269;27;20138;-73
2023/04/04 02:15:22;;;;;;;2.28;0.70;;;11.20;96.70;;;;;;5123774;27;20134;-73
2023/04/04 02:17:51;;;;;;;1.40;0.65;;;11.30;96.70;;;;;;5141307;27;20069;-74
2023/04/04 02:20:19;;;;;;;2.20;0.70;;;11.30;96.70;;;;;;5116430;27;20056;-73
2023/04/04 02:22:51;;;;;;;1.50;0.50;;;11.30;96.70;;;;;;5143496;27;20110;-72
2023/04/04 02:25:20;;;;;;;2.70;0.73;;;11.40;96.70;;;;;;5138555;27;20039;-72
2023/04/04 02:27:48;;;;;;;1.67;0.68;;;11.20;96.70;;;;;;5142097;27;20047;-72
2023/04/04 02:30:18;;;;;;;1.85;0.65;;;11.20;96.70;;;;;;5139199;27;20449;-73
2023/04/04 02:32:47;;;;;;;3.65;1.88;;;11.00;96.70;;;;;;5141972;27;20494;-73
2023/04/04 02:35:18;;;;;;;1.90;0.73;;;11.00;96.70;;;;;;5127152;27;20499;-72
2023/04/04 02:37:46;;;;;;;2.15;0.60;;;11.00;96.70;;;;;;5143519;27;20046;-73
2023/04/04 02:40:29;;;;;;;3.58;0.82;;;11.00;96.70;;;;;;5124924;27;20192;-73
2023/04/04 02:42:58;;;;;;;2.72;0.88;;;11.00;96.70;;;;;;5143256;27;20047;-73
2023/04/04 02:45:27;;;;;;;3.97;0.88;;;10.90;96.70;;;;;;5142172;27;20086;-73
2023/04/04 02:48:04;;;;;;;3.80;0.88;;;10.90;96.70;;;;;;5143721;27;20050;-73
2023/04/04 02:50:39;;;;;;;2.15;0.75;;;10.80;96.70;;;;;;5134060;27;20043;-73
2023/04/04 02:53:10;;;;;;;1.80;0.70;;;10.90;96.70;;;;;;5138391;27;21206;-73
2023/04/04 02:55:38;;;;;;;1.92;0.57;;;10.90;96.70;;;;;;5143445;27;20050;-72
2023/04/04 02:58:06;;;;;;;1.90;0.80;;;10.90;96.70;;;;;;5143996;27;20058;-74
2023/04/04 03:00:36;;;;;;;4.50;0.80;;;10.90;96.70;;;;;;5127173;27;20043;-73
2023/04/04 03:03:04;;;;;;;3.08;0.75;;;10.90;96.70;;;;;;5143484;27;20095;-73
2023/04/04 03:05:38;;;;;;;2.05;0.65;;;10.90;96.70;;;;;;5142679;27;20099;-73
2023/04/04 03:08:07;;;;;;;2.92;0.82;;;10.90;96.70;;;;;;5144165;27;20051;-73
2023/04/04 03:10:35;;;;;;;1.55;0.70;;;10.80;96.70;;;;;;5143882;27;20059;-72
2023/04/04 03:13:03;;;;;;;2.35;0.90;;;10.70;96.70;;;;;;5144143;27;20065;-73
2023/04/04 03:15:35;;;;;;;2.72;0.70;;;10.90;96.70;;;;;;5125392;27;20134;-72
2023/04/04 03:18:03;;;;;;;5.00;0.90;;;10.70;96.70;;;;;;5142581;27;20049;-73
2023/04/04 03:20:34;;;;;;;6.95;0.90;;;10.70;96.70;;;;;;5142516;27;20487;-72
2023/04/04 03:23:02;;;;;;;2.72;0.90;;;10.80;96.70;;;;;;5144369;27;20041;-72
2023/04/04 03:25:31;;;;;;;2.38;1.05;;;10.60;96.70;;;;;;5142914;27;20061;-72
2023/04/04 03:28:08;;;;;;;2.65;0.80;;;10.70;96.70;;;;;;5142789;27;20042;-71
2023/04/04 03:30:37;;;;;;;2.03;0.73;;;10.60;96.70;;;;;;5141053;27;20179;-72
2023/04/04 03:33:07;;;;;;;3.63;1.13;;;10.60;96.70;;;;;;5141490;27;20038;-73
2023/04/04 03:35:38;;;;;;;4.15;0.80;;;10.70;96.70;;;;;;5121526;27;20047;-72
2023/04/04 03:38:06;;;;;;;2.30;0.88;;;10.60;96.70;;;;;;5142007;27;20043;-73
2023/04/04 03:40:35;;;;;;;3.22;0.98;;;10.60;96.70;;;;;;5137821;27;20038;-72
2023/04/04 03:43:10;;;;;;;2.67;0.90;;;10.60;96.70;;;;;;5142887;27;20050;-72
2023/04/04 03:45:40;;;;;;;4.18;1.27;;;10.70;96.70;;;;;;5142068;27;20058;-73
2023/04/04 03:48:10;;;;;;;1.70;0.90;;;10.50;96.70;;;;;;5142451;27;20062;-73
2023/04/04 03:50:39;;;;;;;1.98;0.70;;;10.30;96.70;;;;;;5141176;27;20605;-72
2023/04/04 03:53:08;;;;;;;4.03;1.10;;;10.40;96.70;;;;;;5138097;27;20703;-72
2023/04/04 03:55:39;;;;;;;3.83;1.00;;;10.40;96.70;;;;;;5141559;27;20049;-72
2023/04/04 03:58:07;;;;;;;3.72;0.82;;;10.50;96.70;;;;;;5142652;27;20038;-72
2023/04/04 04:00:35;;;;;;;6.32;0.98;;;10.40;96.70;;;;;;5141979;27;20511;-72
2023/04/04 04:03:05;;;;;;;1.75;1.30;;;10.40;96.70;;;;;;5140950;27;20046;-72
2023/04/04 04:05:33;;;;;;;2.50;0.80;;;10.30;96.70;;;;;;5140542;27;20035;-72
2023/04/04 04:08:01;;;;;;;2.10;0.80;;;10.50;96.70;;;;;;5127510;27;20066;-74
2023/04/04 04:10:29;;;;;;;1.90;0.90;;;10.40;96.70;;;;;;5125263;27;20049;-72
2023/04/04 04:12:57;;;;;;;2.33;0.77;;;10.40;96.70;;;;;;5141191;27;20054;-72
2023/04/04 04:15:26;;;;;;;2.75;0.88;;;10.40;96.70;;;;;;5123810;27;20053;-72
2023/04/04 04:17:56;;;;;;;2.90;1.00;;;10.50;96.70;;;;;;5138948;27;20065;-72
2023/04/04 04:20:28;;;;;;;2.58;0.98;;;10.40;96.70;;;;;;5136107;27;20142;-72
2023/04/04 04:22:56;;;;;;;3.53;0.77;;;10.50;96.70;;;;;;5141441;27;20107;-72
2023/04/04 04:25:24;;;;;;;1.88;0.60;;;10.30;96.70;;;;;;5140999;27;20122;-72
2023/04/04 04:28:00;;;;;;;1.80;0.87;;;10.30;96.70;;;;;;5142142;27;20141;-71
2023/04/04 04:30:28;;;;;;;2.65;0.70;;;10.30;96.70;;;;;;5135505;27;20415;-72
2023/04/04 04:32:56;;;;;;;2.50;0.90;;;10.50;96.70;;;;;;5141855;27;20053;-72
2023/04/04 04:35:35;;;;;;;2.20;0.70;;;10.30;96.70;;;;;;5142226;27;20043;-72
2023/04/04 04:38:04;;;;;;;2.60;1.10;;;10.40;96.70;;;;;;5142246;27;20522;-72
2023/04/04 04:40:32;;;;;;;1.98;0.70;;;10.30;96.70;;;;;;5124696;27;20034;-72
2023/04/04 04:43:05;;;;;;;2.15;0.93;;;10.20;96.70;;;;;;5142177;27;20039;-72
2023/04/04 04:45:34;;;;;;;3.58;0.95;;;10.20;96.70;;;;;;5139844;27;20054;-72
2023/04/04 04:48:07;;;;;;;3.38;1.05;;;10.20;96.70;;;;;;5141690;27;20031;-72
2023/04/04 04:50:44;;;;;;;4.75;1.00;;;10.10;96.70;;;;;;5141714;27;20041;-71
2023/04/04 04:53:16;;;;;;;5.05;0.98;;;10.20;96.70;;;;;;5137526;27;20062;-73
2023/04/04 04:55:46;;;;;;;4.32;1.20;;;10.10;96.70;;;;;;5141847;27;20047;-72
2023/04/04 04:58:16;;;;;;;2.22;0.90;;;10.10;96.70;;;;;;5141426;27;20070;-72
2023/04/04 05:00:48;;;;;;;5.50;1.05;;;10.10;96.70;;;;;;5141258;27;20046;-72
2023/04/04 05:03:16;;;;;;;3.55;0.90;;;10.10;96.70;;;;;;5124308;27;20103;-72
2023/04/04 05:05:50;;;;;;;2.63;0.90;;;10.10;96.70;;;;;;5124775;27;20046;-72
2023/04/04 05:08:18;;;;;;;3.47;1.42;;;10.10;96.70;;;;;;5141088;27;20059;-72
2023/04/04 05:10:58;;;;;;;4.03;0.75;;;10.10;96.70;;;;;;5139759;27;20042;-73
2023/04/04 05:13:29;;;;;;;2.08;0.80;;;10.10;96.70;;;;;;5138828;27;20133;-72
2023/04/04 05:15:57;;;;;;;1.92;0.70;;;10.20;96.70;;;;;;5135142;27;20057;-72
2023/04/04 05:18:26;;;;;;;3.38;1.10;;;10.30;96.70;;;;;;5140953;27;20038;-72
2023/04/04 05:20:56;;;;;;;4.60;1.00;;;10.40;96.70;;;;;;5136441;27;20031;-72
2023/04/04 05:23:27;;;;;;;2.33;1.00;;;10.40;96.70;;;;;;5141551;27;20047;-71
2023/04/04 05:25:56;;;;;;;4.07;1.02;;;10.40;96.70;;;;;;5140677;27;20046;-72
2023/04/04 05:28:27;;;;;;;2.45;0.80;;;10.30;96.70;;;;;;5141405;27;20046;-71
2023/04/04 05:30:59;;;;;;;6.13;1.10;;;10.30;96.70;;;;;;5141822;27;20035;-72
2023/04/04 05:33:30;;;;;;;4.80;0.90;;;10.20;96.70;;;;;;5141466;27;20045;-72
2023/04/04 05:36:08;;;;;;;8.57;1.92;;;10.40;96.70;;;;;;5124729;27;20042;-72
2023/04/04 05:38:41;;;;;;;2.95;1.00;;;10.20;96.70;;;;;;5132768;27;20722;-72
2023/04/04 05:41:10;;;;;;;6.10;0.93;;;10.20;96.70;;;;;;5129771;27;20047;-72
2023/04/04 05:43:39;;;;;;;4.47;1.10;;;10.30;96.70;;;;;;5141490;27;20045;-72
2023/04/04 05:46:13;;;;;;;3.35;0.77;;;10.30;96.70;;;;;;5141361;27;20054;-72
2023/04/04 05:48:46;;;;;;;2.75;0.90;;;10.30;96.70;;;;;;5130629;27;20085;-72
2023/04/04 05:51:15;;;;;;;3.67;0.93;;;10.40;96.70;;;;;;5140447;27;20454;-72
2023/04/04 05:53:51;;;;;;;6.03;1.38;;;10.40;96.70;;;;;;5109207;28;20035;-72
2023/04/04 05:56:27;;;;;;;4.72;0.90;;;10.40;96.70;;;;;;5137031;27;20134;-72
2023/04/04 05:58:57;;;;;;;9.93;1.23;;;10.40;96.70;;;;;;5115925;27;20051;-72
2023/04/04 06:01:28;;;;;;;4.15;1.20;;;10.40;96.70;;;;;;5142084;27;20161;-71
2023/04/04 06:04:01;;;;;;;3.45;1.02;;;10.50;96.70;;;;;;5141083;27;20038;-72
2023/04/04 06:06:30;;;;;;;4.38;1.00;;;10.40;96.70;;;;;;5143088;27;20488;-71
2023/04/04 06:08:59;;;;;;;4.05;1.08;;;10.50;96.70;;;;;;5140641;27;20711;-72
2023/04/04 06:11:28;;;;;;;2.92;1.17;;;10.50;96.70;;;;;;5141216;27;20046;-72
2023/04/04 06:14:02;;;;;;;2.20;0.88;;;10.60;96.70;;;;;;5124112;27;20042;-72
2023/04/04 06:16:31;;;;;;;3.50;1.08;;;10.60;96.70;;;;;;5141525;27;20045;-72
2023/04/04 06:18:59;;;;;;;3.63;1.08;;;10.60;96.70;;;;;;5143647;27;20051;-72
2023/04/04 06:21:27;;;;;;;4.38;1.00;;;10.70;96.70;;;;;;5124434;27;20127;-72
2023/04/04 06:23:56;;;;;;;4.25;0.95;;;10.50;96.70;;;;;;5144436;27;20047;-72
2023/04/04 06:26:26;;;;;;;2.25;0.80;;;10.50;96.70;;;;;;5146139;27;20130;-72
2023/04/04 06:28:55;;;;;;;2.47;0.90;;;10.50;96.70;;;;;;5144669;27;20601;-72
2023/04/04 06:31:28;;;;;;;4.00;1.13;;;10.50;96.70;;;;;;5144690;27;20051;-72
2023/04/04 06:34:00;;;;;;;2.55;1.10;;;10.60;96.70;;;;;;5144208;27;20046;-72
2023/04/04 06:36:32;;;;;;;1.52;0.82;;;10.60;96.70;;;;;;5142825;27;20131;-73
2023/04/04 06:39:05;;;;;;;2.70;1.08;;;10.50;96.70;;;;;;5140439;27;20050;-73
2023/04/04 06:41:33;;;;;;;3.25;0.85;;;10.60;96.70;;;;;;5144606;27;20045;-72
2023/04/04 06:44:02;;;;;;;3.22;1.00;;;10.60;96.70;;;;;;5143916;27;20034;-72
2023/04/04 06:46:31;;;;;;;3.15;1.17;;;10.60;96.70;;;;;;5145259;27;20408;-72
2023/04/04 06:49:00;;;;;;;2.65;1.00;;;10.60;96.70;;;;;;5135855;27;20058;-71
2023/04/04 06:51:28;;;;;;;2.17;0.98;;;10.70;96.70;;;;;;5141144;27;20070;-72
2023/04/04 06:53:56;;;;;;;3.55;1.05;;;10.70;96.70;;;;;;5142324;27;20038;-74
2023/04/04 06:56:26;;;;;;;6.00;1.30;;;10.60;96.70;;;;;;5144739;27;20208;-74
2023/04/04 06:58:55;;;;;;;10.10;2.28;;;10.60;96.70;;;;;;5141416;27;20070;-75
2023/04/04 07:01:23;;;;;;;3.97;1.30;;;10.60;96.70;;;;;;5144304;27;20035;-75
2023/04/04 07:03:53;;;;;;;5.50;1.60;;;10.70;96.70;;;;;;5126630;27;20071;-74
2023/04/04 07:06:23;;;;;;;4.10;1.40;;;10.60;96.70;;;;;;5144024;27;20039;-73
2023/04/04 07:08:52;;;;;;;8.70;1.90;;;10.60;96.70;;;;;;5143441;27;20450;-73
2023/04/04 07:11:22;;;;;;;7.65;1.52;;;10.70;96.70;;;;;;5143286;27;20081;-73
2023/04/04 07:14:07;;;;;;;4.57;1.17;;;10.70;96.70;;;;;;5142226;27;20047;-73
2023/04/04 07:16:35;;;;;;;3.25;1.15;;;10.70;96.70;;;;;;5144981;27;20039;-72
2023/04/04 07:19:03;;;;;;;6.20;1.15;;;10.80;96.70;;;;;;5139027;27;20107;-73
2023/04/04 07:21:31;;;;;;;7.85;1.30;;;10.80;96.70;;;;;;5126079;27;20050;-75
2023/04/04 07:24:01;;;;;;;6.15;1.25;;;10.80;96.70;;;;;;5142999;27;20107;-73
2023/04/04 07:26:28;;;;;;;13.32;1.40;;;10.80;96.70;;;;;;5144150;27;20115;-73
2023/04/04 07:28:57;;;;;;;2.67;1.05;;;10.90;96.70;;;;;;5144550;27;20037;-73
2023/04/04 07:31:36;;;;;;;3.03;0.77;;;10.90;96.70;;;;;;5144028;27;20038;-73
2023/04/04 07:34:04;;;;;;;2.85;1.00;;;10.90;96.70;;;;;;5124291;27;20043;-73
2023/04/04 07:36:32;;;;;;;4.80;1.38;;;10.90;96.70;;;;;;5143119;27;20046;-72
2023/04/04 07:39:01;;;;;;;2.35;0.90;;;10.90;96.70;;;;;;5140916;27;20087;-72
2023/04/04 07:41:29;;;;;;;5.20;1.17;;;11.10;96.70;;;;;;5139080;27;20070;-73
2023/04/04 07:43:59;;;;;;;3.13;0.98;;;11.10;96.70;;;;;;5143559;27;20061;-73
2023/04/04 07:46:27;;;;;;;3.28;1.00;;;11.10;96.70;;;;;;5141393;27;20080;-74
2023/04/04 07:48:55;;;;;;;2.13;1.00;;;11.10;96.70;;;;;;5134862;27;20687;-72
2023/04/04 07:51:29;;;;;;;3.85;1.10;;;11.20;96.70;;;;;;5143654;27;20047;-72
2023/04/04 07:53:58;;;;;;;1.52;0.90;;;11.30;96.70;;;;;;5143293;27;20118;-73
2023/04/04 07:56:26;;;;;;;5.78;1.52;;;11.30;96.70;;;;;;5143177;27;20072;-73
2023/04/04 07:58:54;;;;;;;2.78;0.80;;;11.20;96.70;;;;;;5144902;27;20079;-73
2023/04/04 08:01:23;;;;;;;3.20;0.98;;;11.20;96.70;;;;;;5142658;27;20043;-73
2023/04/04 08:03:56;;;;;;;2.35;0.82;;;11.30;96.70;;;;;;5123938;27;20091;-73
2023/04/04 08:06:25;;;;;;;3.05;1.05;;;11.30;96.70;;;;;;5140485;27;20035;-73
2023/04/04 08:08:53;;;;;;;3.95;0.65;;;11.30;96.70;;;;;;5144686;27;20094;-73
2023/04/04 08:11:21;;;;;;;3.72;0.80;;;11.30;96.70;;;;;;5141407;27;20042;-73
2023/04/04 08:14:11;;;;;;;3.47;0.85;;;11.40;96.70;;;;;;5141603;27;20486;-74
2023/04/04 08:16:41;;;;;;;2.58;1.13;;;11.50;96.70;;;;;;5122127;27;20059;-75
2023/04/04 08:19:08;;;;;;;1.42;0.60;;;11.50;96.70;;;;;;5144354;27;20428;-75
2023/04/04 08:21:36;;;;;;;4.47;0.82;;;11.50;96.70;;;;;;5140722;27;20087;-73
2023/04/04 08:24:05;;;;;;;3.47;0.95;;;11.50;96.70;;;;;;5143703;27;20061;-73
2023/04/04 08:26:32;;;;;;;2.75;0.65;;;11.60;96.70;;;;;;5144053;27;20046;-72
2023/04/04 08:29:00;;;;;;;2.45;0.98;;;11.60;96.70;;;;;;5137602;27;20487;-73
2023/04/04 08:31:29;;;;;;;1.48;0.70;;;11.70;96.70;;;;;;5144704;27;20073;-74
2023/04/04 08:34:00;;;;;;;3.13;0.80;;;11.70;96.70;;;;;;5142764;27;20087;-74
2023/04/04 08:36:29;;;;;;;4.80;0.73;;;11.70;96.70;;;;;;5142344;27;20053;-76
2023/04/04 08:38:57;;;;;;;6.57;0.90;;;11.70;96.70;;;;;;5143534;27;20066;-75
2023/04/04 08:41:26;;;;;;;5.38;0.68;;;11.80;96.70;;;;;;5123991;27;20061;-76
2023/04/04 08:43:56;;;;;;;1.92;0.70;;;11.80;96.70;;;;;;5138745;27;20466;-76
2023/04/04 08:46:26;;;;;;;2.28;0.80;;;11.80;96.70;;;;;;5121660;27;20055;-74
2023/04/04 08:48:57;;;;;;;4.10;1.02;;;11.90;96.70;;;;;;5140535;27;20030;-74
2023/04/04 08:51:30;;;;;;;1.63;0.70;;;12.00;96.70;;;;;;5144152;27;20537;-74
2023/04/04 08:54:00;;;;;;;3.25;0.70;;;12.00;96.70;;;;;;5136873;27;20039;-74
2023/04/04 08:56:29;;;;;;;1.83;0.68;;;12.00;96.70;;;;;;5142534;27;20623;-74
2023/04/04 08:58:57;;;;;;;2.22;0.80;;;12.00;96.70;;;;;;5141287;27;20051;-73
2023/04/04 09:01:28;;;;;;;2.95;0.90;;;12.10;96.70;;;;;;5143521;27;20039;-73
2023/04/04 09:03:57;;;;;;;3.35;0.88;;;12.30;96.70;;;;;;5141358;27;20130;-74
2023/04/04 09:06:27;;;;;;;2.35;0.40;;;12.10;96.70;;;;;;5143375;27;20122;-74
2023/04/04 09:08:56;;;;;;;1.92;0.65;;;12.20;96.70;;;;;;5142396;27;20094;-73
2023/04/04 09:11:26;;;;;;;3.35;0.63;;;12.20;96.70;;;;;;5131412;27;20034;-75
2023/04/04 09:13:55;;;;;;;2.03;0.50;;;12.10;96.70;;;;;;5142817;27;20169;-73
2023/04/04 09:16:25;;;;;;;2.03;0.70;;;12.20;96.70;;;;;;5143191;27;20035;-75
2023/04/04 09:18:53;;;;;;;1.63;0.68;;;12.30;96.70;;;;;;5141864;27;20463;-73
2023/04/04 09:21:20;;;;;;;1.70;0.57;;;12.40;96.70;;;;;;5141287;27;20125;-74
2023/04/04 09:23:59;;;;;;;1.75;0.63;;;12.50;96.70;;;;;;5140622;27;20038;-74
2023/04/04 09:26:28;;;;;;;1.30;0.70;;;12.40;96.70;;;;;;5141967;27;20042;-73
2023/04/04 09:28:55;;;;;;;1.42;0.50;;;12.40;96.70;;;;;;5143308;27;20491;-74
2023/04/04 09:31:24;;;;;;;1.45;0.65;;;12.50;96.70;;;;;;5142018;27;20051;-75
2023/04/04 09:33:52;;;;;;;6.30;0.80;;;12.40;96.70;;;;;;5142570;27;20042;-74
2023/04/04 09:36:21;;;;;;;5.38;0.90;;;12.40;96.70;;;;;;5141621;27;20057;-75
2023/04/04 09:38:53;;;;;;;3.45;0.93;;;12.40;96.70;;;;;;5139876;27;20046;-74
2023/04/04 09:41:26;;;;;;;4.53;0.90;;;12.50;96.70;;;;;;5140228;27;20488;-75
2023/04/04 09:43:57;;;;;;;5.20;0.60;;;12.50;96.70;;;;;;5131104;27;20686;-75
2023/04/04 09:46:26;;;;;;;4.30;0.98;;;12.50;96.70;;;;;;5137379;27;20055;-74
2023/04/04 09:48:57;;;;;;;9.32;1.30;;;12.60;96.70;;;;;;5141554;27;20051;-74
2023/04/04 09:51:34;;;;;;;5.35;1.13;;;12.70;96.70;;;;;;5140713;27;20054;-73
2023/04/04 09:54:03;;;;;;;1.60;0.70;;;12.70;96.70;;;;;;5131715;27;20099;-74
2023/04/04 09:56:34;;;;;;;1.95;0.55;;;12.70;96.70;;;;;;5138127;27;20530;-74
2023/04/04 09:59:02;;;;;;;4.57;0.70;;;12.80;96.70;;;;;;5145543;27;20135;-75
2023/04/04 10:01:33;;;;;;;1.65;0.50;;;12.90;96.70;;;;;;5145775;27;20468;-74
2023/04/04 10:04:05;;;;;;;2.30;0.60;;;13.00;96.70;;;;;;5144125;27;20081;-75
2023/04/04 10:06:36;;;;;;;1.17;0.60;;;13.20;96.50;;;;;;5128398;27;20039;-75
2023/04/04 10:09:07;;;;;;;2.30;0.82;;;13.30;96.50;;;;;;5146842;27;20492;-74
2023/04/04 10:11:37;;;;;;;3.20;0.70;;;13.20;95.80;;;;;;5143476;27;20039;-74
2023/04/04 10:14:05;;;;;;;3.60;0.85;;;13.30;95.90;;;;;;5144656;27;20051;-73
2023/04/04 10:16:36;;;;;;;3.88;0.77;;;13.40;96.00;;;;;;5144229;27;20126;-73
2023/04/04 10:19:08;;;;;;;2.17;0.70;;;13.50;95.40;;;;;;5124276;27;20408;-73
2023/04/04 10:21:36;;;;;;;1.88;0.70;;;13.60;94.40;;;;;;5146443;27;20064;-73
2023/04/04 10:24:09;;;;;;;1.98;0.60;;;13.70;94.40;;;;;;5127405;27;20095;-73
2023/04/04 10:26:41;;;;;;;3.85;0.57;;;13.90;94.70;;;;;;5146127;27;20537;-73
2023/04/04 10:29:09;;;;;;;1.55;0.47;;;14.00;93.60;;;;;;5144766;27;20165;-73
2023/04/04 10:31:40;;;;;;;1.70;0.60;;;14.10;93.40;;;;;;5146496;27;20130;-73
2023/04/04 10:34:14;;;;;;;1.10;0.45;;;14.20;93.10;;;;;;5143378;27;20066;-73
2023/04/04 10:36:46;;;;;;;3.65;1.25;;;14.30;92.50;;;;;;5144209;27;20647;-73
2023/04/04 10:39:20;;;;;;;1.13;0.52;;;14.30;92.20;;;;;;5134673;27;20043;-73
2023/04/04 10:41:51;;;;;;;1.17;0.60;;;14.40;91.90;;;;;;5143532;27;20533;-74
2023/04/04 10:44:32;;;;;;;2.28;0.68;;;14.50;92.20;;;;;;5128102;27;20593;-75
2023/04/04 10:47:08;;;;;;;1.27;0.50;;;14.50;91.90;;;;;;5145314;27;20076;-74
2023/04/04 10:49:37;;;;;;;2.80;1.15;;;14.40;91.50;;;;;;5143136;27;20165;-75
2023/04/04 10:52:06;;;;;;;1.33;0.60;;;14.50;90.70;;;;;;5143406;27;20035;-74
2023/04/04 10:54:34;;;;;;;1.45;0.60;;;14.50;91.00;;;;;;5146179;27;20035;-77
2023/04/04 10:57:04;;;;;;;8.43;0.95;;;14.60;91.20;;;;;;5139040;27;20498;-75
2023/04/04 10:59:32;;;;;;;2.38;0.60;;;14.70;91.10;;;;;;5145933;27;20046;-75
2023/04/04 11:02:02;;;;;;;2.42;0.60;;;14.90;91.30;;;;;;5126975;27;20049;-74
2023/04/04 11:04:32;;;;;;;2.42;0.50;;;14.90;91.30;;;;;;5138161;27;20088;-74
2023/04/04 11:07:14;;;;;;;1.67;0.52;;;14.80;91.30;;;;;;5143868;27;20096;-75
2023/04/04 11:09:51;;;;;;;2.47;0.60;;;14.80;90.80;;;;;;5141725;27;20043;-74
2023/04/04 11:12:27;;;;;;;6.25;1.63;;;14.70;90.20;;;;;;5117419;27;20046;-74
2023/04/04 11:14:57;;;;;;;2.30;0.50;;;14.80;90.50;;;;;;5146073;27;20125;-74
2023/04/04 11:17:55;;;;;;;3.03;0.70;;;14.80;90.00;;;;;;5145578;27;20135;-75
2023/04/04 11:20:34;;;;;;;3.10;0.60;;;14.80;89.90;;;;;;5139791;27;20043;-75
2023/04/04 11:23:04;;;;;;;6.10;0.93;;;14.80;89.90;;;;;;5144264;27;20146;-74
2023/04/04 11:25:34;;;;;;;1.73;0.60;;;15.00;90.80;;;;;;5145326;27;20495;-74
2023/04/04 11:28:13;;;;;;;5.90;1.10;;;15.00;90.70;;;;;;5143795;27;20055;-74
2023/04/04 11:30:47;;;;;;;2.47;0.80;;;15.20;91.50;;;;;;5140748;27;20384;-74
2023/04/04 11:33:29;;;;;;;1.92;0.60;;;15.30;90.40;;;;;;5145090;27;20484;-75
2023/04/04 11:36:05;;;;;;;1.77;0.95;;;15.30;90.90;;;;;;5126517;27;20078;-74
2023/04/04 11:38:39;;;;;;;3.05;1.00;;;15.40;91.20;;;;;;5144304;27;20039;-74
2023/04/04 11:41:09;;;;;;;3.65;0.90;;;15.30;89.80;;;;;;5142029;27;20483;-74
2023/04/04 11:43:45;;;;;;;2.35;0.60;;;15.20;90.00;;;;;;5125504;27;20034;-74
2023/04/04 11:46:19;;;;;;;2.70;0.52;;;15.50;90.00;;;;;;5143416;27;20395;-74
2023/04/04 11:48:48;;;;;;;7.35;1.05;;;15.50;91.60;;;;;;5142801;27;20542;-74
2023/04/04 11:51:18;;;;;;;2.17;0.68;;;15.70;93.00;;;;;;5142934;27;20043;-74
2023/04/04 11:53:47;;;;;;;3.97;0.80;;;15.70;92.60;;;;;;5142879;27;20138;-74
2023/04/04 11:56:15;;;;;;;2.95;0.80;;;15.80;93.20;;;;;;5144473;27;20053;-74
2023/04/04 11:58:48;;;;;;;2.97;0.60;;;15.80;93.00;;;;;;5143503;27;20143;-75
2023/04/04 12:01:22;;;;;;;1.33;0.60;;;15.70;93.40;;;;;;5143214;27;20043;-74
2023/04/04 12:03:50;;;;;;;5.90;0.90;;;15.80;93.70;;;;;;5142379;27;20139;-74
2023/04/04 12:06:19;;;;;;;6.10;0.90;;;15.90;93.60;;;;;;5134838;27;20074;-74
2023/04/04 12:08:47;;;;;;;22.38;2.17;;;16.00;94.40;;;;;;5135565;27;20149;-74
2023/04/04 12:11:43;;;;;;;6.15;1.20;;;16.30;94.60;;;;;;5139664;27;20539;-74
2023/04/04 12:14:17;;;;;;;4.43;0.90;;;16.20;94.90;;;;;;5062245;28;20445;-73
2023/04/04 12:16:48;;;;;;;2.72;1.00;;;16.20;94.90;;;;;;5071869;28;20627;-74
2023/04/04 12:19:17;;;;;;;10.40;1.08;;;16.20;94.60;;;;;;5079021;28;20117;-74
2023/04/04 12:21:45;;;;;;;10.25;1.42;;;16.20;93.40;;;;;;5079346;28;20054;-74
2023/04/04 12:24:14;;;;;;;8.18;1.35;;;16.30;94.80;;;;;;5045607;28;20044;-74
2023/04/04 12:26:44;;;;;;;6.80;1.10;;;16.30;95.00;;;;;;5078722;28;20072;-74
2023/04/04 12:29:15;;;;;;;4.55;0.88;;;16.40;95.20;;;;;;5071030;28;20409;-74
2023/04/04 12:31:46;;;;;;;3.97;0.90;;;16.40;95.40;;;;;;5079484;28;20488;-73
2023/04/04 12:34:21;;;;;;;4.28;1.00;;;16.50;95.40;;;;;;5061295;28;20139;-74
2023/04/04 12:36:51;;;;;;;3.85;1.00;;;16.50;93.90;;;;;;5061812;28;20461;-74
2023/04/04 12:39:21;;;;;;;6.25;1.02;;;16.60;94.60;;;;;;5079105;28;20052;-73
2023/04/04 12:41:51;;;;;;;2.67;0.75;;;16.70;94.10;;;;;;5062759;28;20048;-74
2023/04/04 12:44:30;;;;;;;2.08;0.77;;;16.70;94.20;;;;;;5079207;28;20484;-74
2023/04/04 12:47:02;;;;;;;2.40;0.70;;;16.80;94.90;;;;;;5079365;28;20056;-74
2023/04/04 12:49:31;;;;;;;1.85;0.60;;;16.70;93.80;;;;;;5061911;28;20073;-75
2023/04/04 12:52:06;;;;;;;8.27;1.25;;;16.70;93.30;;;;;;5125667;27;20055;-74
2023/04/04 12:54:37;;;;;;;3.42;0.73;;;16.80;93.80;;;;;;5142660;27;20042;-74
2023/04/04 12:57:06;;;;;;;10.88;1.10;;;16.80;92.80;;;;;;5142963;27;20130;-74
2023/04/04 12:59:35;;;;;;;6.10;1.00;;;16.90;93.00;;;;;;5142908;27;20038;-74
2023/04/04 13:02:09;;;;;;;5.72;0.80;;;16.80;91.00;;;;;;5133415;27;20877;-74
2023/04/04 13:04:39;;;;;;;5.60;0.90;;;16.70;90.90;;;;;;5143577;27;20039;-75
2023/04/04 13:07:21;;;;;;;6.35;0.98;;;16.80;91.50;;;;;;5143999;27;20038;-73